Time;durP1;ratioP1;P1;durP2;ratioP2;P2;SDS_P1;SDS_P2;PMS_P1;PMS_P2;Temp;Humidity;BMP_temperature;BMP_pressure;BME280_temperature;BME280_humidity;BME280_pressure;Samples;Min_cycle;Max_cycle;Signal;HPM_P1;HPM_P2
2022/07/08 00:01:33;;;;;;;13.38;4.05;;;20.50;99.90;;;;;;5269141;28;20089;-74
2022/07/08 00:04:04;;;;;;;14.18;3.70;;;20.60;99.90;;;;;;5268004;28;20554;-73
2022/07/08 00:06:37;;;;;;;12.73;4.25;;;20.70;99.90;;;;;;5269207;28;20062;-73
2022/07/08 00:09:10;;;;;;;9.50;3.75;;;20.70;99.90;;;;;;5269182;28;20387;-74
2022/07/08 00:11:41;;;;;;;12.55;4.18;;;20.50;99.90;;;;;;5268882;28;20637;-74
2022/07/08 00:14:12;;;;;;;11.20;4.32;;;20.40;99.90;;;;;;5269079;28;20349;-74
2022/07/08 00:16:43;;;;;;;9.70;4.05;;;20.40;99.90;;;;;;5269006;28;20023;-74
2022/07/08 00:19:15;;;;;;;6.97;3.53;;;20.50;99.90;;;;;;5269012;28;20103;-74
2022/07/08 00:21:50;;;;;;;15.38;4.65;;;20.30;99.90;;;;;;5268590;28;20135;-74
2022/07/08 00:24:21;;;;;;;14.70;4.32;;;20.30;99.90;;;;;;5268861;28;20062;-74
2022/07/08 00:26:52;;;;;;;10.45;3.63;;;20.40;99.90;;;;;;5268790;28;20051;-75
2022/07/08 00:29:23;;;;;;;11.98;3.90;;;20.20;99.90;;;;;;5273112;28;20165;-74
2022/07/08 00:31:53;;;;;;;13.68;4.82;;;20.00;99.90;;;;;;5273163;28;20088;-75
2022/07/08 00:34:24;;;;;;;10.45;4.30;;;20.10;99.90;;;;;;5273262;28;20027;-74
2022/07/08 00:36:55;;;;;;;9.27;3.85;;;20.20;99.90;;;;;;5273247;28;20031;-74
2022/07/08 00:39:26;;;;;;;8.68;3.80;;;20.20;99.90;;;;;;5273136;28;20027;-72
2022/07/08 00:41:57;;;;;;;12.27;3.97;;;20.10;99.90;;;;;;5272880;28;20101;-74
2022/07/08 00:44:28;;;;;;;10.52;4.82;;;20.20;99.90;;;;;;5272915;28;20082;-75
2022/07/08 00:46:59;;;;;;;11.40;4.80;;;20.10;99.90;;;;;;5272996;28;20028;-72
2022/07/08 00:49:30;;;;;;;12.40;4.88;;;20.10;99.90;;;;;;5272704;28;20027;-74
2022/07/08 00:52:01;;;;;;;15.15;4.65;;;20.30;99.90;;;;;;5272733;28;20044;-74
2022/07/08 00:54:32;;;;;;;9.30;3.80;;;20.20;99.90;;;;;;5272653;28;20028;-73
2022/07/08 00:57:03;;;;;;;9.85;4.40;;;20.10;99.90;;;;;;5272795;28;20024;-74
2022/07/08 00:59:34;;;;;;;13.73;4.60;;;20.10;99.90;;;;;;5272848;28;20028;-73
2022/07/08 01:02:05;;;;;;;7.47;4.50;;;20.10;99.90;;;;;;5272585;28;20073;-74
2022/07/08 01:04:36;;;;;;;8.88;5.35;;;20.00;99.90;;;;;;5272605;28;20035;-74
2022/07/08 01:07:07;;;;;;;10.07;5.25;;;20.10;99.90;;;;;;5272530;28;20070;-74
2022/07/08 01:09:38;;;;;;;11.05;5.55;;;20.10;99.90;;;;;;5272622;28;20408;-73
2022/07/08 01:12:09;;;;;;;6.55;4.78;;;20.00;99.90;;;;;;5272240;28;20064;-74
2022/07/08 01:14:40;;;;;;;10.57;5.05;;;19.90;99.90;;;;;;5272356;28;20039;-74
2022/07/08 01:17:11;;;;;;;10.82;5.53;;;20.00;99.90;;;;;;5272399;28;20035;-72
2022/07/08 01:19:42;;;;;;;12.60;6.05;;;19.90;99.90;;;;;;5272188;28;20016;-72
2022/07/08 01:22:13;;;;;;;12.65;5.60;;;19.90;99.90;;;;;;5272175;28;20056;-74
2022/07/08 01:24:43;;;;;;;11.57;5.50;;;19.90;99.90;;;;;;5272254;28;20020;-74
2022/07/08 01:27:14;;;;;;;10.57;5.22;;;19.90;99.90;;;;;;5272346;28;20537;-74
2022/07/08 01:29:45;;;;;;;9.80;6.03;;;20.00;99.90;;;;;;5272012;28;20021;-73
2022/07/08 01:32:16;;;;;;;9.07;5.68;;;20.00;99.90;;;;;;5271978;28;20047;-74
2022/07/08 01:34:47;;;;;;;13.25;5.15;;;19.80;99.90;;;;;;5271985;28;20026;-75
2022/07/08 01:37:18;;;;;;;9.25;5.28;;;19.80;99.90;;;;;;5271760;28;20032;-73
2022/07/08 01:39:49;;;;;;;9.52;5.10;;;19.80;99.90;;;;;;5270995;28;20555;-75
2022/07/08 01:42:19;;;;;;;8.48;5.65;;;19.60;99.90;;;;;;5271609;28;20040;-74
2022/07/08 01:44:51;;;;;;;12.52;5.45;;;19.80;99.90;;;;;;5271766;28;20031;-72
2022/07/08 01:47:21;;;;;;;8.80;5.30;;;19.80;99.90;;;;;;5271853;28;20020;-73
2022/07/08 01:49:52;;;;;;;9.70;5.47;;;19.80;99.90;;;;;;5271762;28;20028;-74
2022/07/08 01:52:24;;;;;;;11.23;5.60;;;19.70;99.90;;;;;;5271412;28;20040;-74
2022/07/08 01:54:55;;;;;;;13.57;5.88;;;19.60;99.90;;;;;;5271608;28;20028;-74
2022/07/08 01:57:26;;;;;;;7.75;5.40;;;19.60;99.90;;;;;;5271518;28;20028;-74
2022/07/08 01:59:57;;;;;;;11.90;5.43;;;19.60;99.90;;;;;;5271394;28;20028;-75
2022/07/08 02:02:28;;;;;;;9.68;5.47;;;19.60;99.90;;;;;;5271493;28;20507;-74
2022/07/08 02:04:58;;;;;;;8.98;5.65;;;19.60;99.90;;;;;;5271302;28;20028;-75
2022/07/08 02:07:31;;;;;;;10.98;5.43;;;19.60;99.90;;;;;;5271282;28;20028;-74
2022/07/08 02:10:03;;;;;;;12.40;5.60;;;19.50;99.90;;;;;;5269963;28;20367;-74
2022/07/08 02:12:35;;;;;;;10.30;5.72;;;19.10;99.90;;;;;;5271181;28;20036;-73
2022/07/08 02:15:08;;;;;;;10.63;5.18;;;19.50;99.90;;;;;;5271314;28;20025;-74
2022/07/08 02:17:42;;;;;;;9.73;5.25;;;19.40;99.90;;;;;;5271110;28;20126;-74
2022/07/08 02:20:13;;;;;;;7.40;5.00;;;19.40;99.90;;;;;;5269676;28;20105;-74
2022/07/08 02:22:44;;;;;;;9.65;5.05;;;19.50;99.90;;;;;;5270899;28;20048;-72
2022/07/08 02:25:15;;;;;;;9.75;4.88;;;19.50;99.90;;;;;;5270946;28;20025;-72
2022/07/08 02:27:46;;;;;;;8.18;5.03;;;19.20;99.90;;;;;;5271092;28;20035;-73
2022/07/08 02:30:17;;;;;;;10.80;5.18;;;19.40;99.90;;;;;;5270651;28;20016;-74
2022/07/08 02:32:47;;;;;;;8.73;4.95;;;19.20;99.90;;;;;;5270613;28;20067;-73
2022/07/08 02:35:18;;;;;;;12.68;5.50;;;19.40;99.90;;;;;;5270710;28;20406;-73
2022/07/08 02:37:49;;;;;;;6.88;4.40;;;19.30;99.90;;;;;;5270667;28;20115;-73
2022/07/08 02:40:20;;;;;;;11.07;5.28;;;19.20;99.90;;;;;;5270620;28;20047;-74
2022/07/08 02:42:51;;;;;;;12.60;5.18;;;19.20;99.90;;;;;;5270419;28;20032;-72
2022/07/08 02:45:22;;;;;;;8.18;4.68;;;19.20;99.90;;;;;;5270535;28;20375;-72
2022/07/08 02:47:52;;;;;;;11.77;5.03;;;19.10;99.90;;;;;;5270579;28;20036;-74
2022/07/08 02:50:23;;;;;;;9.57;5.35;;;19.10;99.90;;;;;;5270177;28;20475;-74
2022/07/08 02:52:54;;;;;;;9.50;5.15;;;19.10;99.90;;;;;;5269530;28;20063;-74
2022/07/08 02:55:25;;;;;;;7.07;4.55;;;19.00;99.90;;;;;;5270416;28;20020;-72
2022/07/08 02:57:56;;;;;;;7.28;4.93;;;19.10;99.90;;;;;;5269019;28;20024;-73
2022/07/08 03:00:27;;;;;;;7.05;4.40;;;19.10;99.90;;;;;;5270182;28;20021;-72
2022/07/08 03:02:58;;;;;;;10.05;4.93;;;19.10;99.90;;;;;;5270215;28;20024;-74
2022/07/08 03:05:28;;;;;;;9.43;5.13;;;19.10;99.90;;;;;;5270376;28;20047;-74
2022/07/08 03:07:59;;;;;;;7.35;4.82;;;19.00;99.90;;;;;;5270104;28;20020;-74
2022/07/08 03:10:30;;;;;;;6.53;5.18;;;19.10;99.90;;;;;;5270018;28;20032;-74
2022/07/08 03:13:01;;;;;;;6.35;5.35;;;19.00;99.90;;;;;;5269919;28;20529;-73
2022/07/08 03:15:32;;;;;;;5.63;4.97;;;19.00;99.90;;;;;;5270068;28;20028;-72
2022/07/08 03:18:03;;;;;;;8.18;4.85;;;19.10;99.90;;;;;;5269910;28;20359;-73
2022/07/08 03:20:34;;;;;;;8.05;4.28;;;19.40;99.90;;;;;;5269648;28;20032;-74
2022/07/08 03:23:05;;;;;;;7.47;4.75;;;19.20;99.90;;;;;;5269856;28;20486;-73
2022/07/08 03:25:36;;;;;;;10.20;4.95;;;19.10;99.90;;;;;;5269842;28;20047;-71
2022/07/08 03:28:06;;;;;;;7.20;4.47;;;19.40;99.90;;;;;;5268501;28;20472;-74
2022/07/08 03:30:37;;;;;;;7.85;4.95;;;19.40;99.90;;;;;;5268472;28;20024;-73
2022/07/08 03:33:08;;;;;;;10.65;5.03;;;19.30;99.90;;;;;;5269679;28;20039;-74
2022/07/08 03:35:39;;;;;;;8.20;4.80;;;19.30;99.90;;;;;;5269617;28;20028;-74
2022/07/08 03:38:10;;;;;;;8.18;5.22;;;19.50;99.90;;;;;;5269501;28;20020;-75
2022/07/08 03:43:30;;;;;;;9.90;5.10;;;19.60;99.90;;;;;;5269556;28;20053;-72
2022/07/08 03:46:00;;;;;;;11.48;4.85;;;19.80;99.90;;;;;;5269442;28;20024;-72
2022/07/08 03:48:31;;;;;;;7.32;4.75;;;19.90;99.90;;;;;;5269496;28;20444;-73
2022/07/08 03:51:02;;;;;;;8.70;4.68;;;19.80;99.90;;;;;;5269108;28;20085;-72
2022/07/08 03:53:33;;;;;;;8.43;4.60;;;19.90;99.90;;;;;;5269424;28;20067;-74
2022/07/08 03:56:05;;;;;;;9.40;4.05;;;20.10;99.90;;;;;;5269094;28;20061;-74
2022/07/08 03:58:36;;;;;;;7.32;3.28;;;20.20;99.90;;;;;;5269191;28;20027;-72
2022/07/08 04:01:07;;;;;;;18.67;4.38;;;20.40;99.90;;;;;;5268950;28;20031;-74
2022/07/08 04:03:38;;;;;;;9.73;3.67;;;20.60;99.90;;;;;;5268884;28;20388;-74
2022/07/08 04:06:09;;;;;;;12.30;3.50;;;20.70;99.90;;;;;;5269098;28;20035;-72
2022/07/08 04:08:41;;;;;;;8.15;3.70;;;20.70;99.90;;;;;;5269041;28;20376;-72
2022/07/08 04:11:12;;;;;;;6.32;3.13;;;20.80;99.90;;;;;;5268793;28;20028;-74
2022/07/08 04:13:42;;;;;;;7.25;3.20;;;21.00;99.90;;;;;;5269578;28;20031;-72
2022/07/08 04:16:13;;;;;;;6.35;3.15;;;21.20;99.90;;;;;;5268956;28;20032;-74
2022/07/08 04:18:44;;;;;;;7.88;3.03;;;21.40;99.90;;;;;;5268923;28;20016;-72
2022/07/08 04:21:15;;;;;;;9.95;3.10;;;21.30;99.90;;;;;;5268531;28;20480;-74
2022/07/08 04:23:48;;;;;;;6.45;2.50;;;21.50;99.90;;;;;;5268930;28;20507;-73
2022/07/08 04:26:18;;;;;;;6.13;3.03;;;21.60;99.90;;;;;;5269005;28;20036;-74
2022/07/08 04:28:49;;;;;;;4.45;2.50;;;21.60;99.90;;;;;;5268968;28;20031;-75
2022/07/08 04:31:20;;;;;;;8.52;2.88;;;21.80;99.90;;;;;;5268704;28;20039;-72
2022/07/08 04:33:53;;;;;;;6.70;2.90;;;22.00;99.90;;;;;;5268912;28;20032;-73
2022/07/08 04:36:24;;;;;;;4.60;2.63;;;21.90;99.90;;;;;;5268828;28;20024;-74
2022/07/08 04:38:55;;;;;;;11.10;2.97;;;22.00;99.90;;;;;;5268821;28;20067;-73
2022/07/08 04:41:26;;;;;;;13.10;2.70;;;22.10;99.90;;;;;;5268701;28;20056;-75
2022/07/08 04:43:57;;;;;;;6.88;2.55;;;22.30;99.90;;;;;;5268809;28;20514;-75
2022/07/08 04:46:27;;;;;;;14.50;2.88;;;22.40;99.90;;;;;;5268780;28;20036;-75
2022/07/08 04:48:58;;;;;;;6.10;2.58;;;22.30;99.90;;;;;;5268690;28;20020;-75
2022/07/08 04:51:29;;;;;;;8.43;2.40;;;22.30;99.90;;;;;;5268576;28;20485;-72
2022/07/08 04:54:00;;;;;;;10.52;2.28;;;22.50;99.90;;;;;;5268634;28;20044;-74
2022/07/08 04:56:31;;;;;;;5.25;2.30;;;22.80;99.90;;;;;;5268545;28;20036;-75
2022/07/08 04:59:02;;;;;;;7.57;2.67;;;22.90;99.90;;;;;;5268615;28;20431;-72
2022/07/08 05:01:33;;;;;;;5.78;2.28;;;22.70;99.90;;;;;;5268748;28;20024;-72
2022/07/08 05:04:04;;;;;;;4.45;1.90;;;22.80;99.90;;;;;;5268625;28;20144;-74
2022/07/08 05:06:35;;;;;;;6.13;2.03;;;22.80;99.90;;;;;;5268584;28;20024;-74
2022/07/08 05:09:05;;;;;;;4.50;2.08;;;22.90;99.90;;;;;;5268729;28;20027;-72
2022/07/08 05:11:36;;;;;;;9.93;2.38;;;23.00;99.90;;;;;;5267139;28;20039;-73
2022/07/08 05:14:12;;;;;;;3.80;2.10;;;22.90;99.90;;;;;;5268577;28;20093;-76
2022/07/08 05:16:43;;;;;;;5.32;1.90;;;23.00;99.90;;;;;;5272314;28;20027;-72
2022/07/08 05:19:14;;;;;;;4.22;1.80;;;23.10;99.90;;;;;;5272182;28;20020;-74
2022/07/08 05:21:45;;;;;;;4.22;1.63;;;23.30;99.90;;;;;;5272264;28;20498;-72
2022/07/08 05:24:16;;;;;;;6.43;1.80;;;23.30;99.90;;;;;;5272124;28;20043;-71
2022/07/08 05:26:47;;;;;;;4.43;1.90;;;23.40;99.90;;;;;;5272159;28;20030;-73
2022/07/08 05:29:18;;;;;;;4.88;1.73;;;23.20;99.90;;;;;;5272124;28;20024;-72
2022/07/08 05:31:53;;;;;;;4.15;1.90;;;23.40;99.90;;;;;;5272047;28;20115;-74
2022/07/08 05:34:24;;;;;;;4.22;1.80;;;23.50;99.90;;;;;;5272051;28;20472;-73
2022/07/08 05:36:55;;;;;;;7.90;2.10;;;23.50;99.90;;;;;;5271982;28;20089;-74
2022/07/08 05:39:26;;;;;;;7.65;2.30;;;23.40;99.90;;;;;;5271764;28;20490;-71
2022/07/08 05:41:57;;;;;;;4.22;1.88;;;23.60;99.90;;;;;;5271705;28;20028;-74
2022/07/08 05:44:28;;;;;;;5.47;2.15;;;23.30;99.90;;;;;;5272002;28;20055;-72
2022/07/08 05:46:58;;;;;;;4.85;1.70;;;23.40;99.90;;;;;;5271676;28;20036;-72
2022/07/08 05:49:30;;;;;;;4.40;1.70;;;23.50;99.90;;;;;;5271844;28;20027;-73
2022/07/08 05:52:01;;;;;;;4.15;2.00;;;23.20;99.90;;;;;;5271499;28;20067;-75
2022/07/08 05:54:32;;;;;;;5.05;1.60;;;23.60;99.90;;;;;;5271603;28;20108;-72
2022/07/08 05:57:03;;;;;;;7.68;1.67;;;23.60;99.90;;;;;;5271573;28;20099;-72
2022/07/08 05:59:34;;;;;;;4.53;1.73;;;23.30;99.90;;;;;;5271408;28;20028;-72
2022/07/08 06:02:05;;;;;;;4.57;1.83;;;23.20;99.90;;;;;;5271548;28;20089;-72
2022/07/08 06:04:36;;;;;;;3.95;1.80;;;23.40;99.90;;;;;;5271307;28;20043;-74
2022/07/08 06:07:07;;;;;;;4.50;1.45;;;23.70;99.90;;;;;;5271487;28;20028;-73
2022/07/08 06:09:38;;;;;;;5.63;1.80;;;23.60;99.90;;;;;;5271407;28;20024;-75
2022/07/08 06:12:09;;;;;;;6.65;1.85;;;23.80;99.90;;;;;;5271190;28;20490;-72
2022/07/08 06:14:40;;;;;;;5.00;1.70;;;23.70;99.90;;;;;;5271217;28;20539;-73
2022/07/08 06:17:11;;;;;;;7.43;1.88;;;24.00;99.90;;;;;;5271325;28;20028;-73
2022/07/08 06:19:42;;;;;;;3.63;1.85;;;24.20;99.90;;;;;;5270759;28;20153;-73
2022/07/08 06:22:12;;;;;;;12.65;2.03;;;24.30;99.90;;;;;;5270623;28;20052;-75
2022/07/08 06:24:43;;;;;;;3.50;1.80;;;24.50;99.90;;;;;;5270953;28;20027;-74
2022/07/08 06:27:14;;;;;;;8.98;2.00;;;24.40;99.90;;;;;;5270876;28;20141;-73
2022/07/08 06:29:45;;;;;;;7.85;1.95;;;24.30;99.90;;;;;;5270816;28;20012;-72
2022/07/08 06:32:16;;;;;;;7.10;1.75;;;24.20;99.90;;;;;;5270946;28;20044;-75
2022/07/08 06:34:47;;;;;;;6.28;1.95;;;24.70;99.90;;;;;;5270787;28;20027;-72
2022/07/08 06:37:18;;;;;;;6.00;1.73;;;24.40;99.90;;;;;;5270967;28;20016;-73
2022/07/08 06:39:49;;;;;;;5.78;1.85;;;24.90;99.90;;;;;;5270500;28;20019;-75
2022/07/08 06:42:20;;;;;;;4.25;1.75;;;24.70;99.90;;;;;;5270689;28;20385;-75
2022/07/08 06:44:51;;;;;;;4.95;1.55;;;25.00;99.90;;;;;;5270557;28;20080;-76
2022/07/08 06:47:22;;;;;;;7.13;1.95;;;24.70;99.90;;;;;;5270562;28;20106;-72
2022/07/08 06:49:53;;;;;;;7.00;1.80;;;25.00;99.90;;;;;;5270545;28;20016;-72
2022/07/08 06:52:24;;;;;;;7.60;1.45;;;25.30;99.90;;;;;;5270424;28;20106;-75
2022/07/08 06:54:56;;;;;;;8.13;1.75;;;25.10;99.90;;;;;;5270492;28;20036;-72
2022/07/08 06:57:28;;;;;;;8.65;2.10;;;25.10;99.90;;;;;;5270395;28;20356;-72
2022/07/08 06:59:58;;;;;;;6.43;1.77;;;25.40;99.90;;;;;;5270178;28;20376;-75
2022/07/08 07:02:29;;;;;;;4.53;1.55;;;25.00;99.90;;;;;;5270289;28;20085;-72
2022/07/08 07:05:00;;;;;;;2.70;1.73;;;25.20;99.90;;;;;;5270179;28;20031;-75
2022/07/08 07:07:31;;;;;;;4.55;1.85;;;25.10;99.90;;;;;;5270274;28;20099;-76
2022/07/08 07:10:02;;;;;;;8.10;1.90;;;25.10;99.90;;;;;;5270136;28;20116;-75
2022/07/08 07:12:33;;;;;;;3.50;1.40;;;25.00;99.90;;;;;;5269941;28;20044;-75
2022/07/08 07:15:05;;;;;;;4.80;1.60;;;25.60;99.90;;;;;;5269955;28;20475;-75
2022/07/08 07:17:39;;;;;;;3.92;1.63;;;24.90;99.90;;;;;;5269954;28;20024;-72
2022/07/08 07:20:10;;;;;;;8.50;1.83;;;25.20;99.90;;;;;;5269727;28;20016;-72
2022/07/08 07:22:41;;;;;;;4.45;1.38;;;25.10;99.90;;;;;;5269873;28;20556;-73
2022/07/08 07:25:12;;;;;;;4.75;1.60;;;25.50;99.90;;;;;;5269740;28;20020;-72
2022/07/08 07:27:43;;;;;;;5.40;1.85;;;25.70;99.90;;;;;;5269905;28;20036;-75
2022/07/08 07:30:14;;;;;;;6.15;1.65;;;25.40;99.90;;;;;;5269664;28;20038;-73
2022/07/08 07:32:45;;;;;;;6.55;1.60;;;25.80;99.90;;;;;;5269645;28;20101;-72
2022/07/08 07:35:15;;;;;;;3.25;1.50;;;25.90;99.90;;;;;;5269633;28;20028;-73
2022/07/08 07:37:46;;;;;;;5.20;1.70;;;25.80;99.90;;;;;;5268829;28;20024;-75
2022/07/08 07:40:17;;;;;;;3.20;1.50;;;25.60;99.90;;;;;;5269601;28;20025;-73
2022/07/08 07:42:48;;;;;;;3.97;1.50;;;26.00;99.90;;;;;;5269479;28;20032;-74
2022/07/08 07:45:19;;;;;;;6.15;2.10;;;25.70;99.90;;;;;;5269545;28;20016;-73
2022/07/08 07:47:50;;;;;;;5.53;1.50;;;26.00;99.90;;;;;;5269529;28;20036;-72
2022/07/08 07:50:20;;;;;;;4.13;1.60;;;26.40;99.90;;;;;;5269224;28;20047;-76
2022/07/08 07:52:51;;;;;;;5.70;1.50;;;26.20;99.90;;;;;;5269419;28;20039;-73
2022/07/08 07:55:22;;;;;;;3.72;1.45;;;26.10;99.90;;;;;;5269331;28;20050;-72
2022/07/08 07:57:53;;;;;;;5.07;1.45;;;26.50;99.90;;;;;;5269021;28;20063;-74
2022/07/08 08:00:25;;;;;;;5.45;1.65;;;26.50;99.90;;;;;;5269192;28;20027;-72
2022/07/08 08:02:56;;;;;;;7.72;1.27;;;26.00;99.90;;;;;;5269320;28;20494;-73
2022/07/08 08:05:27;;;;;;;4.40;1.60;;;26.10;99.90;;;;;;5268037;28;20498;-75
2022/07/08 08:07:59;;;;;;;3.38;1.50;;;26.20;99.90;;;;;;5269025;28;20119;-72
2022/07/08 08:10:29;;;;;;;3.67;1.48;;;25.90;99.90;;;;;;5269137;28;20028;-72
2022/07/08 08:13:01;;;;;;;3.50;1.25;;;25.80;99.90;;;;;;5269031;28;20486;-72
2022/07/08 08:15:32;;;;;;;6.68;1.67;;;26.50;99.90;;;;;;5269197;28;20020;-72
2022/07/08 08:18:03;;;;;;;8.25;1.73;;;26.20;99.90;;;;;;5268920;28;20027;-73
2022/07/08 08:20:34;;;;;;;2.83;1.63;;;26.20;99.90;;;;;;5268747;28;20463;-72
2022/07/08 08:23:05;;;;;;;7.03;1.58;;;26.20;99.90;;;;;;5268968;28;20039;-72
2022/07/08 08:25:36;;;;;;;3.42;1.50;;;26.10;99.90;;;;;;5268907;28;20079;-72
2022/07/08 08:28:07;;;;;;;4.65;1.52;;;26.60;99.90;;;;;;5268931;28;20048;-74
2022/07/08 08:30:38;;;;;;;3.20;1.77;;;26.10;99.90;;;;;;5268875;28;20861;-74
2022/07/08 08:33:09;;;;;;;6.55;1.40;;;26.00;99.90;;;;;;5268759;28;20039;-73
2022/07/08 08:35:39;;;;;;;7.10;1.50;;;26.10;99.90;;;;;;5268826;28;20372;-74
2022/07/08 08:38:10;;;;;;;5.65;1.92;;;25.90;99.90;;;;;;5268763;28;20028;-75
2022/07/08 08:40:42;;;;;;;1.95;1.50;;;26.00;99.90;;;;;;5268679;28;20085;-73
2022/07/08 08:43:13;;;;;;;5.93;2.35;;;27.00;99.90;;;;;;5268795;28;20490;-75
2022/07/08 08:45:44;;;;;;;7.10;2.30;;;27.40;99.90;;;;;;5268672;28;20103;-74
2022/07/08 08:48:17;;;;;;;4.82;2.25;;;27.40;99.90;;;;;;5269089;28;20157;-76
2022/07/08 08:50:55;;;;;;;4.68;1.95;;;27.20;99.90;;;;;;5272682;28;20028;-72
2022/07/08 08:53:33;;;;;;;2.83;1.98;;;26.90;99.90;;;;;;5272784;28;20182;-75
2022/07/08 08:56:09;;;;;;;3.53;1.70;;;26.90;99.90;;;;;;5272876;28;20024;-72
2022/07/08 08:58:41;;;;;;;5.88;1.70;;;27.60;99.90;;;;;;5272744;28;20027;-75
2022/07/08 09:01:12;;;;;;;10.40;2.30;;;27.50;99.90;;;;;;5272492;28;20032;-72
2022/07/08 09:03:44;;;;;;;5.63;1.73;;;27.30;99.90;;;;;;5272527;28;20080;-75
2022/07/08 09:06:15;;;;;;;7.75;1.95;;;27.20;99.90;;;;;;5272401;28;20473;-73
2022/07/08 09:08:45;;;;;;;5.95;2.28;;;27.40;99.90;;;;;;5272443;28;20020;-76
2022/07/08 09:11:18;;;;;;;8.60;2.72;;;27.70;99.90;;;;;;5272203;28;20036;-75
2022/07/08 09:14:25;;;;;;;7.05;2.17;;;27.00;99.90;;;;;;5272527;28;20039;-75
2022/07/08 09:17:16;;;;;;;3.47;1.55;;;27.40;99.90;;;;;;5272672;28;20028;-76
2022/07/08 09:19:50;;;;;;;2.95;1.52;;;27.30;99.90;;;;;;5272311;28;20345;-73
2022/07/08 09:22:22;;;;;;;5.45;1.70;;;27.50;99.90;;;;;;5271990;28;20052;-76
2022/07/08 09:24:56;;;;;;;4.75;1.40;;;27.40;99.90;;;;;;5272131;28;20102;-72
2022/07/08 09:27:28;;;;;;;4.97;1.63;;;27.30;99.90;;;;;;5272212;28;20035;-72
2022/07/08 09:30:01;;;;;;;7.05;1.95;;;28.10;99.90;;;;;;5272200;28;20057;-72
2022/07/08 09:32:31;;;;;;;7.13;1.80;;;28.10;99.90;;;;;;5272125;28;20544;-72
2022/07/08 09:35:12;;;;;;;7.25;2.38;;;28.20;99.90;;;;;;5271971;28;20040;-76
2022/07/08 09:37:43;;;;;;;4.28;1.67;;;27.60;99.90;;;;;;5272030;28;20028;-77
2022/07/08 09:40:18;;;;;;;4.25;1.42;;;27.80;99.90;;;;;;5271806;28;20027;-74
2022/07/08 09:42:49;;;;;;;6.18;1.77;;;27.60;99.90;;;;;;5271695;28;20032;-76
2022/07/08 09:45:27;;;;;;;25.95;2.67;;;27.50;99.90;;;;;;5271709;28;20081;-76
2022/07/08 09:48:07;;;;;;;10.80;1.90;;;27.90;99.90;;;;;;5271826;28;20072;-74
2022/07/08 09:50:39;;;;;;;;;;;27.60;99.90;;;;;;5270948;28;20028;-75
2022/07/08 09:53:15;;;;;;;11.15;2.22;;;27.70;99.90;;;;;;5270214;28;20315;-74
2022/07/08 09:55:51;;;;;;;6.40;1.58;;;27.70;99.90;;;;;;5270405;28;20396;-77
2022/07/08 09:58:24;;;;;;;5.22;1.30;;;27.50;99.90;;;;;;5271424;28;20027;-77
2022/07/08 10:00:56;;;;;;;15.50;2.92;;;27.60;99.90;;;;;;5270916;28;20028;-72
2022/07/08 10:03:28;;;;;;;8.02;2.28;;;27.90;99.90;;;;;;5271516;28;20031;-74
2022/07/08 10:05:59;;;;;;;4.20;1.60;;;27.90;99.90;;;;;;5271465;28;20024;-73
2022/07/08 10:08:30;;;;;;;5.63;1.70;;;27.80;99.90;;;;;;5271180;28;20494;-77
2022/07/08 10:11:05;;;;;;;4.10;2.03;;;28.20;99.90;;;;;;5271141;28;20016;-76
2022/07/08 10:13:38;;;;;;;7.97;1.70;;;27.70;99.90;;;;;;5270001;28;20040;-75
2022/07/08 10:16:10;;;;;;;3.47;1.30;;;28.10;99.90;;;;;;5271238;28;20024;-77
2022/07/08 10:18:44;;;;;;;5.60;1.50;;;28.20;99.90;;;;;;5271024;28;20028;-76
2022/07/08 10:21:21;;;;;;;3.70;1.60;;;27.80;99.90;;;;;;5270928;28;20100;-76
2022/07/08 10:23:54;;;;;;;7.50;1.65;;;27.80;99.90;;;;;;5269803;28;20480;-75
2022/07/08 10:26:34;;;;;;;7.60;1.85;;;28.10;99.90;;;;;;5271136;28;20016;-76
2022/07/08 10:29:07;;;;;;;4.78;1.60;;;27.80;99.90;;;;;;5270979;28;20035;-77
2022/07/08 10:31:52;;;;;;;3.45;1.50;;;27.70;99.90;;;;;;5270859;28;20028;-76
2022/07/08 10:34:30;;;;;;;7.18;1.67;;;27.40;99.90;;;;;;5270898;28;20043;-77
2022/07/08 10:37:03;;;;;;;4.05;1.63;;;27.70;99.90;;;;;;5270788;28;20462;-77
2022/07/08 10:39:41;;;;;;;5.30;1.60;;;27.90;99.90;;;;;;5270639;28;20103;-72
2022/07/08 10:42:12;;;;;;;11.77;1.80;;;27.50;99.90;;;;;;5269213;28;20472;-76
2022/07/08 10:44:43;;;;;;;7.13;1.90;;;27.40;99.90;;;;;;5270736;28;20028;-75
2022/07/08 10:47:32;;;;;;;3.28;1.60;;;28.10;99.90;;;;;;5270678;28;20490;-78
2022/07/08 10:50:08;;;;;;;3.25;1.70;;;27.90;99.90;;;;;;5270659;28;20016;-73
2022/07/08 10:52:40;;;;;;;4.57;2.10;;;27.30;99.90;;;;;;5270270;28;20043;-77
2022/07/08 10:55:16;;;;;;;6.93;1.80;;;26.80;99.90;;;;;;5270418;28;20023;-77
2022/07/08 10:57:57;;;;;;;10.98;2.17;;;28.10;99.90;;;;;;5270229;28;20028;-77
2022/07/08 11:00:28;;;;;;;5.40;1.70;;;27.80;99.90;;;;;;5270300;28;20072;-76
2022/07/08 11:03:00;;;;;;;62.65;3.92;;;27.80;99.90;;;;;;5270257;28;20036;-76
2022/07/08 11:05:42;;;;;;;5.85;1.60;;;26.90;99.90;;;;;;5270184;28;20020;-75
2022/07/08 11:08:19;;;;;;;4.10;1.80;;;26.90;99.90;;;;;;5270271;28;20441;-76
2022/07/08 11:10:51;;;;;;;10.50;2.03;;;27.50;99.90;;;;;;5270059;28;20405;-73
2022/07/08 11:13:24;;;;;;;4.43;1.60;;;27.90;99.90;;;;;;5269056;28;20047;-77
2022/07/08 11:16:00;;;;;;;4.45;1.95;;;27.60;99.90;;;;;;5270085;28;20043;-73
2022/07/08 11:18:31;;;;;;;2.97;1.70;;;27.60;99.90;;;;;;5269967;28;20051;-77
2022/07/08 11:21:02;;;;;;;5.18;1.70;;;28.10;99.90;;;;;;5269655;28;20449;-78
2022/07/08 11:23:33;;;;;;;5.10;2.25;;;27.90;99.90;;;;;;5268754;28;20472;-77
2022/07/08 11:26:04;;;;;;;5.82;1.88;;;27.90;99.90;;;;;;5269758;28;20024;-77
2022/07/08 11:28:38;;;;;;;6.63;2.13;;;28.00;99.90;;;;;;5269913;28;20080;-76
2022/07/08 11:31:38;;;;;;;2.58;1.88;;;28.00;99.90;;;;;;5269686;28;20016;-76
2022/07/08 11:34:19;;;;;;;10.05;2.25;;;27.60;99.90;;;;;;5259615;28;20130;-75
2022/07/08 11:36:58;;;;;;;7.70;2.13;;;27.80;99.90;;;;;;5269707;28;20051;-77
2022/07/08 11:39:29;;;;;;;6.75;1.98;;;27.50;99.90;;;;;;5269622;28;20103;-77
2022/07/08 11:42:00;;;;;;;4.55;1.92;;;27.40;99.90;;;;;;5269552;28;20111;-74
2022/07/08 11:44:31;;;;;;;8.95;2.10;;;28.00;99.90;;;;;;5269418;28;20403;-77
2022/07/08 11:47:03;;;;;;;4.82;1.63;;;27.80;99.90;;;;;;5269555;28;20028;-73
2022/07/08 11:49:41;;;;;;;7.60;2.10;;;27.60;99.90;;;;;;5269406;28;20348;-73
2022/07/08 11:52:16;;;;;;;4.03;1.75;;;28.10;99.90;;;;;;5269022;28;20076;-76
2022/07/08 11:54:48;;;;;;;3.85;1.98;;;27.70;99.90;;;;;;5269371;28;20372;-75
2022/07/08 11:57:19;;;;;;;8.20;2.25;;;27.90;99.90;;;;;;5269389;28;20024;-76
2022/07/08 11:59:50;;;;;;;11.30;1.67;;;28.50;99.90;;;;;;5269242;28;20028;-76
2022/07/08 12:02:24;;;;;;;8.13;2.10;;;28.40;99.90;;;;;;5269253;28;20020;-77
2022/07/08 12:04:55;;;;;;;4.53;1.80;;;28.40;99.90;;;;;;5269186;28;20019;-77
2022/07/08 12:07:27;;;;;;;5.90;2.40;;;29.00;99.90;;;;;;5269133;28;20031;-77
2022/07/08 12:10:00;;;;;;;7.40;2.15;;;28.00;99.90;;;;;;5269168;28;20027;-77
2022/07/08 12:12:33;;;;;;;3.60;1.92;;;28.40;99.90;;;;;;5269013;28;20505;-78
2022/07/08 12:15:15;;;;;;;6.15;1.90;;;28.20;99.90;;;;;;5269136;28;20028;-77
2022/07/08 12:17:58;;;;;;;7.13;2.45;;;28.20;99.90;;;;;;5269102;28;20036;-73
2022/07/08 12:20:34;;;;;;;3.88;2.15;;;27.90;99.90;;;;;;5268778;28;20032;-77
2022/07/08 12:23:05;;;;;;;5.20;1.88;;;27.40;99.90;;;;;;5268711;28;20051;-75
2022/07/08 12:25:48;;;;;;;7.13;1.73;;;28.40;99.90;;;;;;5268976;28;20027;-77
2022/07/08 12:28:23;;;;;;;6.43;2.22;;;28.70;99.90;;;;;;5268896;28;20027;-76
2022/07/08 12:30:54;;;;;;;5.13;2.00;;;27.40;99.90;;;;;;5268838;28;20024;-76
2022/07/08 12:33:29;;;;;;;4.75;2.17;;;27.70;99.90;;;;;;5268762;28;20051;-76
2022/07/08 12:36:02;;;;;;;3.75;2.10;;;27.70;99.90;;;;;;5269047;28;20425;-73
2022/07/08 12:38:33;;;;;;;7.85;2.03;;;27.20;99.90;;;;;;5268806;28;20421;-77
2022/07/08 12:41:19;;;;;;;8.98;2.45;;;27.50;99.90;;;;;;5268832;28;20024;-77
2022/07/08 12:43:50;;;;;;;6.30;2.38;;;28.20;99.90;;;;;;5268926;28;20024;-77
2022/07/08 12:46:21;;;;;;;5.50;2.05;;;27.60;99.90;;;;;;5268630;28;20349;-78
2022/07/08 12:48:53;;;;;;;6.70;2.35;;;28.10;99.90;;;;;;5268707;28;20103;-76
2022/07/08 12:51:23;;;;;;;3.30;2.03;;;28.00;99.90;;;;;;5268620;28;20348;-77
2022/07/08 12:53:54;;;;;;;4.78;2.28;;;27.30;99.90;;;;;;5267455;28;20044;-77
2022/07/08 12:56:25;;;;;;;8.30;2.63;;;27.10;99.90;;;;;;5268592;28;20031;-77
2022/07/08 12:58:56;;;;;;;5.57;2.70;;;27.20;99.90;;;;;;5268535;28;20098;-77
2022/07/08 13:01:27;;;;;;;7.38;2.30;;;28.30;99.90;;;;;;5268604;28;20031;-77
2022/07/08 13:03:57;;;;;;;4.43;2.33;;;27.30;99.90;;;;;;5268603;28;20032;-77
2022/07/08 13:06:28;;;;;;;5.55;2.65;;;27.70;99.90;;;;;;5268434;28;20063;-78
2022/07/08 13:08:59;;;;;;;8.27;2.60;;;27.60;99.90;;;;;;5268603;28;20066;-77
2022/07/08 13:11:30;;;;;;;4.97;2.40;;;27.50;99.90;;;;;;5268354;28;20024;-77
2022/07/08 13:14:01;;;;;;;6.53;2.65;;;27.40;99.90;;;;;;5268569;28;20027;-78